• Join FlightAware (Why Join?)
  • Login
  • US Flag 
05:37AM EDT


 

Airport Tracker/Info


-or-


 

Live Flight TrackerFlight Track Log ✈ N443DW ✈ 07-Jul-2013 ✈ KMGN - KMTN

Flight Track Log - Related Links

Times and Time Zones

All times are in EDT time to prevent confusion due to time zone crossing. See the N443DW flight status page for this flight to view local times or setup timezone preferences in your user account.

Time Position Orientation Groundspeed Altitude Reporting Facility
EDT Latitude Longitude Course Direction KTS MPH feet Rate Location/Type
03:47PM 45.3828 -84.9139 132° Southeast 169 194 4,100  Level Minneapolis Center
03:48PM 45.3503 -84.8653 134° Southeast 169 194 6,200 2,100 Climbing Minneapolis Center
03:49PM 45.3117 -84.7961 128° Southeast 181 208 8,500 2,040 Climbing Minneapolis Center
03:50PM 45.2767 -84.7275 126° Southeast 199 229 10,500 1,980 Climbing Minneapolis Center
03:51PM 45.2417 -84.6628 128° Southeast 207 238 12,600 1,980 Climbing Minneapolis Center
03:52PM 45.1920 -84.5362 132° Southeast  Level Estimated
03:52PM 45.2042 -84.5947 128° Southeast 206 237 14,600  Level Minneapolis Center
03:53PM 45.1678 -84.5294 128° Southeast 212 244 16,500 1,800 Climbing Minneapolis Center
03:54PM 45.1278 -84.4633 131° Southeast 209 241 18,400 1,440 Climbing Minneapolis Center
03:55PM 45.0881 -84.3961 130° Southeast 211 243 19,500 1,140 Climbing Minneapolis Center
03:56PM 45.0436 -84.3261 132° Southeast 229 264 20,800 1,200 Climbing Minneapolis Center
03:57PM 45.0019 -84.2556 130° Southeast 234 269 22,100 1,200 Climbing Minneapolis Center
03:58PM 44.9619 -84.1836 128° Southeast 233 268 23,300 1,140 Climbing Minneapolis Center
03:59PM 44.9222 -84.1114 128° Southeast 234 269 24,500 960 Climbing Minneapolis Center
04:00PM 44.8914 -84.0533 127° Southeast 232 267 25,300 900 Climbing Minneapolis Center
04:01PM 44.8344 -83.9544 129° Southeast 232 267 26,400 900 Climbing Minneapolis Center
04:02PM 44.7897 -83.8819 131° Southeast 240 276 27,200 720 Climbing Minneapolis Center
04:03PM 44.7492 -83.8100 128° Southeast 239 275 28,000 540 Climbing Minneapolis Center
04:05PM 44.7078 -83.7386 129° Southeast 235 270 28,400 360 Climbing Minneapolis Center
04:06PM 44.6636 -83.6639 130° Southeast 244 281 28,800 240 Climbing Minneapolis Center
04:07PM 44.6086 -83.5708 130° Southeast 254 292 29,000  Climbing Minneapolis Center
04:08PM 44.5608 -83.4892 129° Southeast 265 305 28,900  Descending Minneapolis Center
04:09PM 44.5083 -83.4044 131° Southeast 281 323 29,000  Climbing Minneapolis Center
04:10PM 44.4594 -83.3197 129° Southeast 281 323 29,000  Level Minneapolis Center
04:11PM 44.4103 -83.2314 128° Southeast 287 330 29,000  Level Minneapolis Center
04:12PM 44.3600 -83.1469 130° Southeast 284 327 29,000  Level Minneapolis Center
04:12PM 44.3167 -83.0833 134° Southeast 280 322 29,000  Level Toronto Center
04:13PM 44.2500 -82.9833 133° Southeast 280 322 29,000  Level Toronto Center
04:14PM 44.2000 -82.9167 136° Southeast 280 322 29,000  Level Toronto Center
04:15PM 44.1500 -82.8167 125° Southeast 280 322 29,000  Level Toronto Center
04:16PM 44.1000 -82.7500 136° Southeast 270 311 29,000  Level Toronto Center
04:17PM 44.1011 -82.7189 87° East 275 316 29,000  Level Minneapolis Center
04:18PM 44.0528 -82.6383 130° Southeast 273 314 29,000  Level Minneapolis Center
04:19PM 43.9936 -82.5408 130° Southeast 275 316 29,000  Level Minneapolis Center
04:20PM 43.9436 -82.4614 131° Southeast 274 315 29,000  Level Minneapolis Center
04:21PM 43.8856 -82.3653 130° Southeast 272 313 29,000  Level Minneapolis Center
04:22PM 43.8375 -82.2861 130° Southeast 270 311 29,000  Level Minneapolis Center
04:23PM 43.7878 -82.2075 131° Southeast 271 312 29,000  Level Minneapolis Center
04:24PM 43.7317 -82.1144 130° Southeast 270 311 29,000  Level Minneapolis Center
04:25PM 43.6667 -82.0333 138° Southeast 270 311 29,000  Level Toronto Center
04:26PM 43.6167 -81.9333 125° Southeast 270 311 29,000  Level Toronto Center
04:27PM 43.5833 -81.8667 125° Southeast 270 311 29,000  Level Toronto Center
04:28PM 43.5333 -81.8000 136° Southeast 270 311 29,000  Level Toronto Center
04:29PM 43.4833 -81.7167 130° Southeast 270 311 29,000  Level Toronto Center
04:30PM 43.4333 -81.6333 130° Southeast 270 311 29,000  Level Toronto Center
04:31PM 43.3833 -81.5667 136° Southeast 270 311 29,000  Level Toronto Center
04:32PM 43.3333 -81.4833 130° Southeast 270 311 29,000  Level Toronto Center
04:33PM 43.2833 -81.4000 129° Southeast 270 311 29,000  Level Toronto Center
04:34PM 43.2167 -81.3333 144° Southeast 270 311 29,000  Level Toronto Center
04:35PM 43.1833 -81.2500 119° Southeast 270 311 29,000  Level Toronto Center
04:36PM 43.1167 -81.1667 138° Southeast 270 311 29,000  Level Toronto Center
04:37PM 43.0667 -81.1000 136° Southeast 270 311 29,000  Level Toronto Center
04:38PM 43.0333 -81.0167 119° Southeast 270 311 29,000  Level Toronto Center
04:39PM 42.9833 -80.9333 129° Southeast 270 311 29,000  Level Toronto Center
04:40PM 42.9167 -80.8667 144° Southeast 270 311 29,000  Level Toronto Center
04:41PM 42.8833 -80.8000 124° Southeast 270 311 29,000  Level Toronto Center
04:42PM 42.8728 -80.7731 118° Southeast 271 312 29,000  Level Cleveland Center
04:43PM 42.8228 -80.6992 133° Southeast 271 312 29,000  Level Cleveland Center
04:44PM 42.7728 -80.6256 133° Southeast 265 305 29,000  Level Cleveland Center
04:45PM 42.7208 -80.5464 132° Southeast 265 305 29,000  Level Cleveland Center
04:46PM 42.6706 -80.4675 131° Southeast 265 305 29,000  Level Cleveland Center
04:47PM 42.6225 -80.3914 131° Southeast 270 311 29,000  Level Cleveland Center
04:48PM 42.5767 -80.3208 131° Southeast 257 296 29,000  Level Cleveland Center
04:49PM 42.5286 -80.2450 131° Southeast 265 305 29,000  Level Cleveland Center
04:50PM 42.4825 -80.1722 131° Southeast 260 299 29,000  Level Cleveland Center
04:51PM 42.4322 -80.0967 132° Southeast 266 306 29,000  Level Cleveland Center
04:52PM 42.3817 -80.0267 134° Southeast 266 306 29,000  Level Cleveland Center
04:53PM 42.3397 -79.9653 133° Southeast 266 306 29,000  Level Cleveland Center
04:54PM 42.2936 -79.8900 130° Southeast 266 306 29,000  Level Cleveland Center
04:55PM 42.2450 -79.8175 132° Southeast 266 306 29,000  Level Cleveland Center
04:56PM 42.1903 -79.7397 134° Southeast 266 306 29,000  Level Cleveland Center
04:57PM 42.1397 -79.6675 133° Southeast 266 306 29,000  Level Cleveland Center
04:58PM 42.0892 -79.5928 132° Southeast 266 306 29,000  Level Cleveland Center
04:59PM 42.0406 -79.5153 130° Southeast 266 306 29,000  Level Cleveland Center
05:00PM 41.9958 -79.4350 127° Southeast 266 306 29,000  Level Cleveland Center
05:01PM 41.9514 -79.3547 127° Southeast 271 312 29,000  Level Cleveland Center
05:02PM 41.9131 -79.2886 128° Southeast 271 312 29,000 -540 Level Cleveland Center
05:03PM 41.8556 -79.1864 127° Southeast 276 318 28,000 -540 Descending Cleveland Center
05:04PM 41.8067 -79.1011 128° Southeast 288 331 28,000 -360 Level Cleveland Center
05:05PM 41.7575 -79.0161 128° Southeast 288 331 27,300 -840 Descending Cleveland Center
05:06PM 41.7042 -78.9200 127° Southeast 301 346 26,400 -720 Descending Cleveland Center
05:07PM 41.6506 -78.8325 129° Southeast 306 352 25,900 -540 Descending Cleveland Center
05:08PM 41.5992 -78.7422 127° Southeast 306 352 25,400 -480 Descending Cleveland Center
05:09PM 41.5436 -78.6606 132° Southeast 306 352 25,000 -240 Descending Cleveland Center
05:10PM 41.4778 -78.5931 142° Southeast 294 338 25,000  Level Cleveland Center
05:11PM 41.4164 -78.5286 142° Southeast 288 331 25,000  Level Cleveland Center
05:13PM 41.2872 -78.3894 141° Southeast 263 303 25,000  Level New York Center
05:14PM 41.2289 -78.3250 140° Southeast 268 308 25,000  Level New York Center
05:15PM 41.1683 -78.2631 142° Southeast 268 308 25,000  Level New York Center
05:16PM 41.1039 -78.1925 140° Southeast 268 308 25,000  Level New York Center
05:17PM 41.0492 -78.1344 141° Southeast 284 327 25,000  Level New York Center
05:18PM 40.9906 -78.0703 140° Southeast 284 327 25,000  Level New York Center
05:19PM 40.9297 -78.0086 143° Southeast 284 327 25,000  Level New York Center
05:20PM 40.8708 -77.9475 142° Southeast 284 327 25,000  Level New York Center
05:21PM 40.8083 -77.8806 141° Southeast 284 327 25,000  Level New York Center
05:22PM 40.7497 -77.8142 139° Southeast 284 327 25,000  Level New York Center
05:23PM 40.6914 -77.7425 137° Southeast 284 327 25,000  Level New York Center
05:24PM 40.6378 -77.6633 132° Southeast 284 327 25,000  Level New York Center
05:25PM 40.5883 -77.5817 129° Southeast 289 333 25,000  Level New York Center
05:26PM 40.5411 -77.4950 126° Southeast 289 333 25,000  Level New York Center
05:27PM 40.4983 -77.4036 122° Southeast 295 339 25,000  Level New York Center
05:28PM 40.4581 -77.3042 118° Southeast 302 348 25,000  Level New York Center
05:29PM 40.4086 -77.2178 127° Southeast 302 348 25,000  Level New York Center
05:30PM 40.3656 -77.1264 122° Southeast 297 342 25,000  Level New York Center
05:31PM 40.3442 -77.0211 105° East 297 342 25,000  Level New York Center
05:32PM 40.3353 -76.9114 96° East 297 342 25,000 -300 Level New York Center
05:33PM 40.3325 -76.7994 92° East 302 348 24,500 -960 Descending New York Center
05:34PM 40.3022 -76.6986 111° Southeast 302 348 23,200 -1,560 Descending New York Center
05:35PM 40.2439 -76.6175 133° Southeast 290 334 21,500 -1,860 Descending New York Center
05:36PM 40.1850 -76.5419 136° Southeast 290 334 19,500 -3,000 Descending New York Center
05:38PM 40.0833 -76.3500 125° Southeast 301 346 12,700 -3,240 Descending Potomac TRACON
05:39PM 40.0333 -76.2833 134° Southeast 289 333 10,300 -1,500 Descending Potomac TRACON
05:40PM 39.9833 -76.2000 128° Southeast 291 335 9,900 -240 Descending Potomac TRACON
05:41PM 39.9167 -76.1833 169° South 262 302 9,900 60 Level Potomac TRACON
05:42PM 39.8500 -76.1833 180° South 260 299 10,100  Climbing Potomac TRACON
05:43PM 39.7667 -76.1833 180° South 259 298 9,900  Descending Potomac TRACON
05:44PM 39.7000 -76.2000 191° South 246 283 10,100 -900 Climbing Potomac TRACON
05:45PM 39.6500 -76.2333 207° Southwest 247 284 8,100 -2,520 Descending Potomac TRACON
05:46PM 39.5833 -76.2500 191° South 253 291 5,300 -2,580 Descending Potomac TRACON
05:47PM 39.5167 -76.2667 191° South 235 270 2,900 -1,620 Descending Potomac TRACON
05:48PM 39.4667 -76.3000 207° Southwest 201 231 2,100 -540 Descending Potomac TRACON
05:49PM 39.4167 -76.3500 218° Southwest 199 229 1,900 -300 Descending Potomac TRACON
05:50PM 39.3833 -76.4000 229° Southwest 172 198 1,600 -480 Descending Potomac TRACON
05:51PM 39.3667 -76.4333 237° Southwest 125 144 1,000 -600 Descending Potomac TRACON